« Back
NWS Peachtree City, Ga » Text Product » CSG Terminal Aerodrome Forecast


Printer-friendly Version
Current Version              Previous Versions:   1  2  3  4  5  6  7  8  9  

Terminal Aerodrome Forecast

701
FTUS42 KFFC 291131
TAFCSG
TAF
KCSG 291131Z 2912/3012 00000KT P6SM BKN100
     FM291300 07006KT P6SM FEW100
     FM291500 13007KT P6SM FEW100
     FM292100 17005KT P6SM BKN050
     FM300300 16005KT P6SM SCT035 BKN050
     FM300500 17005KT P6SM BKN035
     FM300800 20006KT P6SM OVC025=



USA.gov is the U.S. government's official web portal to all federal, state and local government web resources and services.